createdAt,value
2023-03-27T00:01:23.723Z,94077.72
2023-03-27T00:04:28.102Z,94094.53
2023-03-27T00:07:29.871Z,94080.38
2023-03-27T00:10:32.759Z,94075.03
2023-03-27T00:13:34.657Z,94095.28
2023-03-27T00:16:36.523Z,94069.66
2023-03-27T00:19:39.698Z,94073.47
2023-03-27T00:22:41.773Z,94063.53
2023-03-27T00:25:43.525Z,94065.47
2023-03-27T00:28:45.596Z,94074.63
2023-03-27T00:31:47.411Z,94078.47
2023-03-27T00:34:50.596Z,94089.53
2023-03-27T00:37:52.839Z,94091.44
2023-03-27T00:40:55.021Z,94099.09
2023-03-27T00:43:57.095Z,94105.94
2023-03-27T00:46:59.065Z,94109.78
2023-03-27T00:50:06.525Z,94103.66
2023-03-27T00:53:13.593Z,94108.66
2023-03-27T00:56:15.803Z,94105.97
2023-03-27T00:59:22.798Z,94110.56
2023-03-27T01:02:24.773Z,94111.72
2023-03-27T01:05:28.181Z,94113.63
2023-03-27T01:08:33.222Z,94103.69
2023-03-27T01:11:46.591Z,94121.28
2023-03-27T01:15:07.125Z,94103.69
2023-03-27T01:18:27.842Z,94104.44
2023-03-27T01:22:21.476Z,94112.06
2023-03-27T01:25:56.573Z,94115.13
2023-03-27T01:29:05.561Z,94106.72
2023-03-27T01:32:58.556Z,94113.63
2023-03-27T01:36:25.076Z,94124.31
2023-03-27T01:39:39.150Z,94113.94
2023-03-27T01:42:47.939Z,94123.13
2023-03-27T01:45:55.601Z,94110.13
2023-03-27T01:49:02.356Z,94122.38
2023-03-27T01:52:08.016Z,94112.41
2023-03-27T01:55:15.308Z,94114.69
2023-03-27T01:58:21.473Z,94117.00
2023-03-27T02:01:30.742Z,94114.72
2023-03-27T02:04:40.518Z,94110.13
2023-03-27T02:07:48.276Z,94111.66
2023-03-27T02:10:56.003Z,94110.91
2023-03-27T02:14:01.962Z,94111.28
2023-03-27T02:17:08.493Z,94114.34
2023-03-27T02:20:13.970Z,94110.53
2023-03-27T02:23:15.766Z,94107.09
2023-03-27T02:26:19.784Z,94107.09
2023-03-27T02:29:38.703Z,94110.16
2023-03-27T02:32:48.462Z,94117.03
2023-03-27T02:36:00.058Z,94114.34
2023-03-27T02:39:07.453Z,94108.19
2023-03-27T02:42:18.544Z,94110.13
2023-03-27T02:45:28.790Z,94107.03
2023-03-27T02:48:34.531Z,94096.34
2023-03-27T02:51:41.506Z,94101.34
2023-03-27T02:54:50.758Z,94111.66
2023-03-27T02:57:57.201Z,94103.97
2023-03-27T03:01:01.688Z,94102.09
2023-03-27T03:04:10.044Z,94105.91
2023-03-27T03:07:13.005Z,94107.03
2023-03-27T03:10:16.075Z,94105.16
2023-03-27T03:13:19.812Z,94120.03
2023-03-27T03:16:21.777Z,94112.00
2023-03-27T03:19:25.213Z,94111.59
2023-03-27T03:22:27.483Z,94111.59
2023-03-27T03:25:31.117Z,94116.91
2023-03-27T03:28:34.308Z,94122.97
2023-03-27T03:31:36.582Z,94113.44
2023-03-27T03:34:38.472Z,94117.25
2023-03-27T03:37:40.796Z,94117.94
2023-03-27T03:40:42.738Z,94119.06
2023-03-27T03:43:45.947Z,94117.88
2023-03-27T03:46:47.755Z,94119.81
2023-03-27T03:49:49.568Z,94109.09
2023-03-27T03:52:51.750Z,94122.44
2023-03-27T03:55:53.864Z,94136.59
2023-03-27T03:58:57.496Z,94117.88
2023-03-27T04:01:59.380Z,94117.50
2023-03-27T04:05:09.125Z,94125.16
2023-03-27T04:08:12.947Z,94123.19
2023-03-27T04:11:15.231Z,94125.91
2023-03-27T04:14:20.676Z,94123.63
2023-03-27T04:17:23.280Z,94126.31
2023-03-27T04:20:25.422Z,94132.47
2023-03-27T04:23:28.041Z,94139.72
2023-03-27T04:26:30.198Z,94132.44
2023-03-27T04:29:33.651Z,94138.19
2023-03-27T04:32:35.470Z,94135.88
2023-03-27T04:35:38.500Z,94141.97
2023-03-27T04:38:40.769Z,94147.72
2023-03-27T04:41:42.640Z,94147.72
2023-03-27T04:44:45.836Z,94153.47
2023-03-27T04:47:48.115Z,94158.47
2023-03-27T04:50:50.048Z,94163.41
2023-03-27T04:53:52.409Z,94162.28
2023-03-27T04:56:54.774Z,94167.22
2023-03-27T04:59:58.420Z,94169.91
2023-03-27T05:03:01.102Z,94174.59
2023-03-27T05:06:03.498Z,94176.78
2023-03-27T05:09:08.085Z,94179.50
2023-03-27T05:12:09.974Z,94189.78
2023-03-27T05:15:14.483Z,94185.94
2023-03-27T05:18:16.388Z,94188.28
2023-03-27T05:21:18.273Z,94204.72
2023-03-27T05:24:20.470Z,94193.97
2023-03-27T05:27:23.835Z,94186.28
2023-03-27T05:30:28.805Z,94185.16
2023-03-27T05:33:30.820Z,94201.59
2023-03-27T05:36:33.637Z,94194.75
2023-03-27T05:39:35.436Z,94211.88
2023-03-27T05:42:42.889Z,94205.03
2023-03-27T05:45:46.713Z,94214.59
2023-03-27T05:48:48.830Z,94214.19
2023-03-27T05:51:50.729Z,94223.00
2023-03-27T05:54:52.667Z,94228.34
2023-03-27T05:57:55.420Z,94235.97
2023-03-27T06:00:59.146Z,94235.19
2023-03-27T06:04:01.304Z,94239.84
2023-03-27T06:07:03.361Z,94256.97
2023-03-27T06:10:06.410Z,94251.22
2023-03-27T06:13:15.738Z,94240.50
2023-03-27T06:16:19.460Z,94253.19
2023-03-27T06:19:22.683Z,94248.25
2023-03-27T06:22:24.577Z,94260.44
2023-03-27T06:25:32.274Z,94260.41
2023-03-27T06:28:34.507Z,94266.91
2023-03-27T06:31:38.365Z,94262.31
2023-03-27T06:34:40.197Z,94267.63
2023-03-27T06:37:42.543Z,94277.91
2023-03-27T06:40:44.821Z,94284.75
2023-03-27T06:43:46.726Z,94272.56
2023-03-27T06:46:50.484Z,94286.69
2023-03-27T06:49:52.748Z,94289.75
2023-03-27T06:52:55.223Z,94292.44
2023-03-27T06:55:58.050Z,94310.34
2023-03-27T06:59:00.729Z,94303.50
2023-03-27T07:02:04.274Z,94312.66
2023-03-27T07:05:08.200Z,94317.63
2023-03-27T07:08:22.495Z,94318.25
2023-03-27T07:11:25.838Z,94324.44
2023-03-27T07:14:29.229Z,94331.63
2023-03-27T07:17:45.946Z,94340.44
2023-03-27T07:20:50.874Z,94353.94
2023-03-27T07:23:53.835Z,94355.38
2023-03-27T07:26:55.665Z,94354.19
2023-03-27T07:29:57.770Z,94362.38
2023-03-27T07:33:01.504Z,94374.50
2023-03-27T07:36:06.993Z,94379.47
2023-03-27T07:39:08.971Z,94388.56
2023-03-27T07:42:11.225Z,94404.06
2023-03-27T07:45:15.154Z,94416.88
2023-03-27T07:48:18.558Z,94438.66
2023-03-27T07:51:20.420Z,94442.41
2023-03-27T07:54:22.311Z,94461.41
2023-03-27T07:57:24.669Z,94489.91
2023-03-27T08:00:27.031Z,94491.28
2023-03-27T08:03:31.374Z,94505.78
2023-03-27T08:06:33.610Z,94512.63
2023-03-27T08:09:35.926Z,94533.00
2023-03-27T08:12:39.596Z,94525.91
2023-03-27T08:15:41.442Z,94552.66
2023-03-27T08:18:45.244Z,94582.53
2023-03-27T08:21:47.105Z,94587.31
2023-03-27T08:24:49.196Z,94595.44
2023-03-27T08:27:51.357Z,94609.75
2023-03-27T08:30:53.644Z,94639.50
2023-03-27T08:34:06.332Z,94649.91
2023-03-27T08:37:08.157Z,94668.78
2023-03-27T08:40:19.290Z,94664.84
2023-03-27T08:43:23.570Z,94694.25
2023-03-27T08:46:28.247Z,94709.28
2023-03-27T08:49:37.124Z,94714.97
2023-03-27T08:52:41.079Z,94732.25
2023-03-27T08:55:44.366Z,94743.34
2023-03-27T08:58:48.757Z,94747.97
2023-03-27T09:01:58.701Z,94755.19
2023-03-27T09:05:09.193Z,94775.56
2023-03-27T09:08:21.841Z,94787.19
2023-03-27T09:11:37.396Z,94801.38
2023-03-27T09:14:46.960Z,94817.00
2023-03-27T09:17:51.877Z,94834.03
2023-03-27T09:20:58.804Z,94835.38
2023-03-27T09:24:06.061Z,94846.28
2023-03-27T09:27:16.457Z,94852.56
2023-03-27T09:30:24.672Z,94856.41
2023-03-27T09:33:26.871Z,94876.69
2023-03-27T09:36:31.275Z,94891.22
2023-03-27T09:39:35.179Z,94903.56
2023-03-27T09:42:41.215Z,94890.41
2023-03-27T09:45:45.178Z,94897.16
2023-03-27T09:48:54.519Z,94911.72
2023-03-27T09:51:58.675Z,94931.00
2023-03-27T09:55:03.387Z,94928.13
2023-03-27T09:58:13.607Z,94929.78
2023-03-27T10:01:17.205Z,94936.25
2023-03-27T10:04:21.336Z,94943.41
2023-03-27T10:07:25.763Z,94963.88
2023-03-27T10:10:28.719Z,94982.69
2023-03-27T10:13:31.261Z,94983.88
2023-03-27T10:16:39.815Z,94990.41
2023-03-27T10:19:42.335Z,95001.78
2023-03-27T10:22:54.403Z,95008.13
2023-03-27T10:26:00.301Z,95015.41
2023-03-27T10:29:18.601Z,95022.84
2023-03-27T10:32:43.734Z,95021.63
2023-03-27T10:35:45.821Z,95031.19
2023-03-27T10:38:55.125Z,95029.06
2023-03-27T10:41:59.412Z,95040.50
2023-03-27T10:45:01.602Z,95051.50
2023-03-27T10:48:08.223Z,95047.81
2023-03-27T10:51:33.168Z,95059.56
2023-03-27T10:54:46.853Z,95069.25
2023-03-27T10:57:52.874Z,95084.59
2023-03-27T11:01:02.607Z,95084.59
2023-03-27T11:04:14.858Z,95095.81
2023-03-27T11:07:23.816Z,95087.16
2023-03-27T11:10:34.782Z,95087.16
2023-03-27T11:13:41.982Z,95098.25
2023-03-27T11:16:49.874Z,95096.00
2023-03-27T11:19:57.864Z,95103.19
2023-03-27T11:23:04.473Z,95114.63
2023-03-27T11:26:13.210Z,95110.69
2023-03-27T11:29:21.418Z,95118.50
2023-03-27T11:32:33.081Z,95121.81
2023-03-27T11:35:38.405Z,95124.38
2023-03-27T11:38:47.072Z,95113.38
2023-03-27T11:41:56.270Z,95115.66
2023-03-27T11:44:58.220Z,95119.47
2023-03-27T11:48:19.861Z,95124.19
2023-03-27T11:51:35.134Z,95111.47
2023-03-27T11:54:56.265Z,95114.22
2023-03-27T11:58:14.157Z,95117.94
2023-03-27T12:01:23.747Z,95102.56
2023-03-27T12:04:40.928Z,95106.44
2023-03-27T12:07:56.692Z,95105.66
2023-03-27T12:11:02.863Z,95111.63
2023-03-27T12:14:44.689Z,95102.25
2023-03-27T12:18:02.939Z,95117.47
2023-03-27T12:21:16.957Z,95119.50
2023-03-27T12:24:33.392Z,95120.34
2023-03-27T12:27:53.661Z,95119.75
2023-03-27T12:31:03.551Z,95122.63
2023-03-27T12:34:12.176Z,95115.44
2023-03-27T12:37:14.589Z,95126.81
2023-03-27T12:40:28.850Z,95119.75
2023-03-27T12:43:32.096Z,95134.66
2023-03-27T12:46:37.804Z,95148.06
2023-03-27T12:49:47.724Z,95158.97
2023-03-27T12:52:51.987Z,95159.25
2023-03-27T12:56:23.523Z,95151.97
2023-03-27T12:59:28.574Z,95140.84
2023-03-27T13:03:07.016Z,95149.03
2023-03-27T13:06:38.056Z,95153.78
2023-03-27T13:09:54.528Z,95161.13
2023-03-27T13:13:14.037Z,95172.00
2023-03-27T13:16:32.301Z,95158.75
2023-03-27T13:19:45.825Z,95154.25
2023-03-27T13:23:00.365Z,95154.72
2023-03-27T13:26:19.463Z,95158.63
2023-03-27T13:29:22.992Z,95157.06
2023-03-27T13:32:36.890Z,95166.28
2023-03-27T13:35:52.792Z,95174.81
2023-03-27T13:39:19.098Z,95180.91
2023-03-27T13:42:23.012Z,95196.09
2023-03-27T13:45:31.846Z,95235.09
2023-03-27T13:49:06.621Z,95226.72
2023-03-27T13:52:46.913Z,95212.97
2023-03-27T13:56:06.599Z,95212.53
2023-03-27T13:59:22.767Z,95219.41
2023-03-27T14:02:55.093Z,95218.31
2023-03-27T14:06:40.768Z,95222.31
2023-03-27T14:09:55.584Z,95227.94
2023-03-27T14:13:06.738Z,95226.16
2023-03-27T14:16:38.319Z,95224.66
2023-03-27T14:20:11.605Z,95237.78
2023-03-27T14:23:18.043Z,95251.25
2023-03-27T14:26:24.110Z,95251.19
2023-03-27T14:29:26.459Z,95276.94
2023-03-27T14:32:29.157Z,95268.94
2023-03-27T14:35:35.587Z,95251.25
2023-03-27T14:38:38.203Z,95272.91
2023-03-27T14:41:48.513Z,95279.66
2023-03-27T14:44:51.001Z,95280.78
2023-03-27T14:47:56.717Z,95276.06
2023-03-27T14:51:02.006Z,95291.34
2023-03-27T14:54:07.253Z,95290.03
2023-03-27T14:57:15.894Z,95290.47
2023-03-27T15:00:21.822Z,95318.53
2023-03-27T15:03:26.338Z,95305.34
2023-03-27T15:06:29.690Z,95307.81
2023-03-27T15:09:31.893Z,95318.13
2023-03-27T15:12:37.277Z,95320.72
2023-03-27T15:15:43.047Z,95330.50
2023-03-27T15:18:54.490Z,95340.09
2023-03-27T15:22:02.966Z,95353.53
2023-03-27T15:25:09.475Z,95355.19
2023-03-27T15:28:20.419Z,95359.91
2023-03-27T15:31:22.660Z,95380.69
2023-03-27T15:34:32.026Z,95393.19
2023-03-27T15:37:35.479Z,95372.84
2023-03-27T15:40:42.437Z,95368.94
2023-03-27T15:43:46.487Z,95364.03
2023-03-27T15:46:54.967Z,95370.75
2023-03-27T15:50:19.600Z,95381.19
2023-03-27T15:53:31.739Z,95374.19
2023-03-27T15:56:40.098Z,95374.25
2023-03-27T15:59:52.505Z,95377.31
2023-03-27T16:02:55.974Z,95369.34
2023-03-27T16:05:58.819Z,95385.75
2023-03-27T16:09:01.998Z,95396.66
2023-03-27T16:12:04.794Z,95407.22
2023-03-27T16:15:28.351Z,95411.97
2023-03-27T16:18:34.211Z,95400.19
2023-03-27T16:21:36.573Z,95411.66
2023-03-27T16:24:39.308Z,95423.25
2023-03-27T16:27:46.889Z,95429.69
2023-03-27T16:30:52.385Z,95407.78
2023-03-27T16:33:54.276Z,95414.09
2023-03-27T16:36:58.184Z,95415.34
2023-03-27T16:40:00.219Z,95420.47
2023-03-27T16:43:03.174Z,95424.91
2023-03-27T16:46:16.190Z,95423.13
2023-03-27T16:49:18.131Z,95425.91
2023-03-27T16:52:22.050Z,95433.81
2023-03-27T16:55:25.435Z,95443.59
2023-03-27T16:58:27.929Z,95443.03
2023-03-27T17:01:32.072Z,95444.72
2023-03-27T17:04:34.894Z,95461.03
2023-03-27T17:07:38.206Z,95467.66
2023-03-27T17:10:41.322Z,95479.78
2023-03-27T17:13:47.300Z,95475.69
2023-03-27T17:16:51.058Z,95481.06
2023-03-27T17:19:56.569Z,95481.72
2023-03-27T17:22:59.324Z,95488.94
2023-03-27T17:26:02.771Z,95495.16
2023-03-27T17:29:06.845Z,95506.72
2023-03-27T17:32:10.895Z,95503.22
2023-03-27T17:35:13.623Z,95516.31
2023-03-27T17:38:16.293Z,95511.94
2023-03-27T17:41:23.026Z,95516.34
2023-03-27T17:44:27.129Z,95530.19
2023-03-27T17:47:31.269Z,95525.56
2023-03-27T17:50:34.385Z,95532.81
2023-03-27T17:53:37.571Z,95527.72
2023-03-27T17:56:41.675Z,95554.91
2023-03-27T17:59:43.871Z,95539.00
2023-03-27T18:02:52.060Z,95533.88
2023-03-27T18:05:55.792Z,95537.91
2023-03-27T18:09:04.361Z,95553.56
2023-03-27T18:12:07.178Z,95551.72
2023-03-27T18:15:11.500Z,95549.13
2023-03-27T18:18:16.969Z,95561.38
2023-03-27T18:21:21.390Z,95573.16
2023-03-27T18:24:25.250Z,95575.88
2023-03-27T18:27:28.723Z,95586.66
2023-03-27T18:30:32.378Z,95585.72
2023-03-27T18:33:41.242Z,95587.94
2023-03-27T18:36:45.390Z,95580.19
2023-03-27T18:39:49.349Z,95580.31
2023-03-27T18:42:53.759Z,95585.81
2023-03-27T18:45:57.907Z,95586.91
2023-03-27T18:49:13.615Z,95594.13
2023-03-27T18:52:20.570Z,95581.44
2023-03-27T18:55:24.148Z,95587.41
2023-03-27T18:58:28.757Z,95591.78
2023-03-27T19:01:32.304Z,95601.50
2023-03-27T19:04:38.298Z,95595.25
2023-03-27T19:07:45.019Z,95608.53
2023-03-27T19:10:49.415Z,95616.88
2023-03-27T19:13:51.801Z,95612.78
2023-03-27T19:16:55.474Z,95621.09
2023-03-27T19:20:00.537Z,95607.00
2023-03-27T19:23:04.086Z,95612.63
2023-03-27T19:26:11.202Z,95631.72
2023-03-27T19:29:15.489Z,95616.06
2023-03-27T19:32:20.270Z,95627.03
2023-03-27T19:35:30.688Z,95619.84
2023-03-27T19:38:34.728Z,95633.13
2023-03-27T19:41:37.615Z,95638.75
2023-03-27T19:44:44.658Z,95647.81
2023-03-27T19:47:47.343Z,95638.75
2023-03-27T19:50:56.885Z,95645.63
2023-03-27T19:54:00.629Z,95657.22
2023-03-27T19:57:04.963Z,95652.69
2023-03-27T20:00:09.916Z,95660.03
2023-03-27T20:03:13.579Z,95654.88
2023-03-27T20:06:21.662Z,95658.13
2023-03-27T20:09:25.601Z,95655.34
2023-03-27T20:12:29.083Z,95656.13
2023-03-27T20:15:35.609Z,95664.09
2023-03-27T20:18:39.434Z,95658.59
2023-03-27T20:21:44.303Z,95660.50
2023-03-27T20:24:47.937Z,95662.69
2023-03-27T20:27:51.181Z,95660.97
2023-03-27T20:30:53.849Z,95661.56
2023-03-27T20:33:56.345Z,95668.66
2023-03-27T20:37:00.092Z,95660.50
2023-03-27T20:40:02.698Z,95662.53
2023-03-27T20:43:06.804Z,95666.59
2023-03-27T20:46:08.957Z,95664.09
2023-03-27T20:49:12.139Z,95674.59
2023-03-27T20:52:17.840Z,95650.16
2023-03-27T20:55:32.415Z,95660.97
2023-03-27T20:58:38.260Z,95657.53
2023-03-27T21:01:40.618Z,95658.78
2023-03-27T21:04:42.912Z,95651.56
2023-03-27T21:07:46.346Z,95648.44
2023-03-27T21:10:53.083Z,95657.84
2023-03-27T21:13:55.360Z,95652.38
2023-03-27T21:16:57.508Z,95642.19
2023-03-27T21:19:59.854Z,95650.03
2023-03-27T21:23:03.171Z,95642.50
2023-03-27T21:26:05.535Z,95651.56
2023-03-27T21:29:08.180Z,95653.94
2023-03-27T21:32:12.213Z,95648.75
2023-03-27T21:35:14.000Z,95651.13
2023-03-27T21:38:17.942Z,95636.25
2023-03-27T21:41:21.858Z,95635.63
2023-03-27T21:44:24.117Z,95643.31
2023-03-27T21:47:40.847Z,95640.16
2023-03-27T21:50:49.447Z,95659.41
2023-03-27T21:53:53.493Z,95663.59
2023-03-27T21:56:56.924Z,95651.09
2023-03-27T21:59:58.823Z,95660.34
2023-03-27T22:03:00.874Z,95657.03
2023-03-27T22:06:11.712Z,95659.72
2023-03-27T22:09:16.528Z,95660.81
2023-03-27T22:12:20.224Z,95646.56
2023-03-27T22:15:22.686Z,95658.63
2023-03-27T22:18:26.074Z,95657.22
2023-03-27T22:21:30.483Z,95666.28
2023-03-27T22:24:34.343Z,95672.50
2023-03-27T22:27:36.114Z,95668.94
2023-03-27T22:30:38.603Z,95666.28
2023-03-27T22:33:42.222Z,95673.31
2023-03-27T22:36:44.066Z,95692.56
2023-03-27T22:39:47.843Z,95669.09
2023-03-27T22:42:49.607Z,95682.06
2023-03-27T22:45:51.863Z,95681.44
2023-03-27T22:48:54.561Z,95698.31
2023-03-27T22:51:56.384Z,95688.28
2023-03-27T22:54:59.699Z,95682.19
2023-03-27T22:58:01.731Z,95700.00
2023-03-27T23:01:05.163Z,95691.56
2023-03-27T23:04:07.480Z,95695.00
2023-03-27T23:07:10.027Z,95711.56
2023-03-27T23:10:13.182Z,95697.66
2023-03-27T23:13:15.121Z,95706.13
2023-03-27T23:16:16.993Z,95703.91
2023-03-27T23:19:18.863Z,95701.25
2023-03-27T23:22:20.694Z,95714.69
2023-03-27T23:25:24.255Z,95718.16
2023-03-27T23:28:29.257Z,95718.75
2023-03-27T23:31:34.794Z,95721.28
2023-03-27T23:34:36.989Z,95720.97
2023-03-27T23:37:40.117Z,95728.34
2023-03-27T23:40:43.781Z,95739.41
2023-03-27T23:43:46.489Z,95739.25
2023-03-27T23:46:49.639Z,95730.72
2023-03-27T23:49:51.498Z,95734.94
2023-03-27T23:52:53.569Z,95736.63
2023-03-27T23:55:58.395Z,95743.38
2023-03-27T23:59:00.504Z,95760.88
